createdAt,value
2022-08-05T00:03:37.723Z,36.50
2022-08-05T00:09:13.178Z,36.36
2022-08-05T00:14:47.395Z,36.50
2022-08-05T00:20:22.864Z,36.94
2022-08-05T00:26:00.024Z,36.65
2022-08-05T00:31:53.657Z,37.06
2022-08-05T00:37:24.408Z,36.96
2022-08-05T00:43:02.095Z,36.83
2022-08-05T00:48:33.328Z,37.27
2022-08-05T00:54:21.604Z,37.67
2022-08-05T00:59:59.254Z,37.45
2022-08-05T01:05:30.292Z,37.55
2022-08-05T01:11:22.222Z,37.78
2022-08-05T01:17:09.524Z,38.03
2022-08-05T01:23:14.207Z,37.95
2022-08-05T01:28:52.580Z,38.26
2022-08-05T01:34:30.167Z,38.52
2022-08-05T01:40:04.245Z,38.63
2022-08-05T01:45:43.088Z,38.58
2022-08-05T01:51:16.100Z,38.67
2022-08-05T01:58:13.191Z,38.75
2022-08-05T02:02:46.412Z,38.92
2022-08-05T02:08:31.063Z,39.19
2022-08-05T02:14:12.501Z,39.31
2022-08-05T02:19:50.023Z,39.19
2022-08-05T02:25:50.227Z,39.52
2022-08-05T02:31:28.403Z,39.44
2022-08-05T02:37:04.358Z,39.54
2022-08-05T02:42:36.340Z,39.56
2022-08-05T02:48:12.806Z,39.54
2022-08-05T02:53:43.925Z,40.24
2022-08-05T02:59:16.145Z,40.15
2022-08-05T03:04:53.293Z,40.19
2022-08-05T03:10:25.857Z,40.20
2022-08-05T03:15:56.959Z,40.15
2022-08-05T03:21:29.351Z,40.78
2022-08-05T03:27:12.378Z,40.10
2022-08-05T03:32:47.041Z,40.79
2022-08-05T03:38:23.899Z,40.85
2022-08-05T03:44:10.348Z,40.70
2022-08-05T03:49:51.514Z,40.71
2022-08-05T03:56:06.065Z,40.49
2022-08-05T04:01:23.153Z,40.93
2022-08-05T04:06:56.827Z,40.77
2022-08-05T04:12:28.974Z,40.90
2022-08-05T04:18:09.461Z,41.43
2022-08-05T04:24:05.104Z,41.21
2022-08-05T04:29:32.593Z,41.00
2022-08-05T04:35:04.694Z,40.80
2022-08-05T04:40:38.235Z,40.94
2022-08-05T04:46:28.370Z,41.13
2022-08-05T04:52:00.477Z,41.35
2022-08-05T04:57:37.245Z,41.54
2022-08-05T05:03:09.467Z,44.91
2022-08-05T05:08:42.728Z,45.38
2022-08-05T05:14:16.016Z,45.64
2022-08-05T05:19:47.627Z,45.57
2022-08-05T05:25:18.560Z,44.21
2022-08-05T05:30:49.667Z,44.59
2022-08-05T05:36:21.333Z,45.10
2022-08-05T05:41:54.850Z,45.07
2022-08-05T05:47:30.289Z,45.93
2022-08-05T05:53:21.931Z,47.43
2022-08-05T05:58:54.197Z,47.79
2022-08-05T06:04:27.082Z,48.56
2022-08-05T06:10:01.441Z,46.47
2022-08-05T06:16:28.784Z,47.08
2022-08-05T06:21:36.101Z,45.01
2022-08-05T06:28:09.363Z,44.56
2022-08-05T06:32:59.656Z,43.48
2022-08-05T06:38:35.637Z,43.04
2022-08-05T06:44:07.470Z,42.55
2022-08-05T06:49:59.868Z,42.28
2022-08-05T06:55:29.585Z,43.14
2022-08-05T07:01:07.542Z,44.89
2022-08-05T07:06:38.550Z,43.84
2022-08-05T07:12:29.578Z,41.58
2022-08-05T07:18:09.597Z,41.64
2022-08-05T07:23:49.789Z,41.72
2022-08-05T07:29:32.683Z,44.95
2022-08-05T07:36:01.994Z,42.88
2022-08-05T07:42:07.698Z,41.73
2022-08-05T07:46:58.840Z,41.26
2022-08-05T07:52:31.623Z,42.42
2022-08-05T07:58:03.324Z,41.20
2022-08-05T08:03:44.686Z,41.62
2022-08-05T08:09:16.318Z,41.51
2022-08-05T08:14:50.741Z,40.40
2022-08-05T08:20:44.198Z,41.21
2022-08-05T08:26:13.960Z,42.19
2022-08-05T08:31:45.167Z,41.86
2022-08-05T08:37:20.808Z,40.84
2022-08-05T08:44:57.902Z,40.10
2022-08-05T08:49:07.523Z,39.63
2022-08-05T08:54:43.768Z,39.90
2022-08-05T09:00:19.269Z,39.20
2022-08-05T09:06:09.189Z,39.53
2022-08-05T09:11:52.845Z,40.51
2022-08-05T09:17:41.124Z,39.75
2022-08-05T09:23:19.829Z,38.72
2022-08-05T09:28:55.426Z,37.53
2022-08-05T09:34:26.795Z,38.92
2022-08-05T09:39:58.174Z,38.07
2022-08-05T09:46:06.995Z,38.11
2022-08-05T09:51:37.649Z,39.21
2022-08-05T09:57:20.684Z,36.93
2022-08-05T10:02:58.025Z,36.57
2022-08-05T10:08:36.516Z,37.99
2022-08-05T10:14:26.727Z,36.71
2022-08-05T10:20:03.986Z,36.10
2022-08-05T10:25:41.942Z,35.43
2022-08-05T10:32:52.339Z,35.42
2022-08-05T10:37:07.569Z,36.04
2022-08-05T10:42:39.429Z,36.04
2022-08-05T10:48:53.001Z,35.58
2022-08-05T10:55:10.917Z,35.80
2022-08-05T11:00:48.566Z,35.08
2022-08-05T11:06:30.792Z,35.41
2022-08-05T11:12:03.421Z,35.48
2022-08-05T11:18:00.178Z,35.53
2022-08-05T11:23:33.771Z,35.67
2022-08-05T11:29:43.266Z,35.76
2022-08-05T11:36:08.254Z,35.63
2022-08-05T11:42:02.010Z,35.05
2022-08-05T11:47:48.600Z,35.34
2022-08-05T11:53:22.187Z,35.08
2022-08-05T11:58:53.436Z,34.76
2022-08-05T12:04:27.062Z,34.61
2022-08-05T12:10:06.058Z,34.61
2022-08-05T12:15:44.388Z,34.43
2022-08-05T12:21:22.008Z,34.21
2022-08-05T12:26:55.128Z,34.06
2022-08-05T12:32:26.314Z,34.63
2022-08-05T12:37:57.415Z,34.13
2022-08-05T12:43:32.191Z,34.10
2022-08-05T12:49:14.212Z,34.47
2022-08-05T12:54:49.765Z,34.45
2022-08-05T13:02:03.366Z,32.62
2022-08-05T13:06:20.724Z,31.38
2022-08-05T13:12:03.658Z,32.16
2022-08-05T13:17:41.475Z,31.64
2022-08-05T13:23:13.333Z,32.86
2022-08-05T13:28:44.393Z,32.88
2022-08-05T13:34:22.941Z,30.37
2022-08-05T13:40:13.415Z,31.08
2022-08-05T13:45:47.800Z,31.29
2022-08-05T13:51:40.156Z,33.85
2022-08-05T13:57:14.948Z,32.55
2022-08-05T14:02:46.400Z,33.68
2022-08-05T14:08:21.075Z,34.86
2022-08-05T14:13:59.077Z,35.35
2022-08-05T14:19:30.619Z,35.47
2022-08-05T14:25:22.533Z,36.30
2022-08-05T14:31:01.785Z,38.55
2022-08-05T14:36:34.241Z,37.55
2022-08-05T14:42:19.340Z,37.15
2022-08-05T14:48:05.198Z,36.73
2022-08-05T14:53:44.528Z,36.08
2022-08-05T14:59:16.113Z,36.26
2022-08-05T15:04:47.940Z,36.54
2022-08-05T15:10:28.607Z,36.70
2022-08-05T15:16:00.300Z,36.49
2022-08-05T15:21:31.675Z,36.76
2022-08-05T15:27:09.116Z,36.61
2022-08-05T15:32:40.658Z,36.59
2022-08-05T15:38:34.811Z,36.89
2022-08-05T15:44:03.406Z,37.36
2022-08-05T15:49:48.094Z,37.27
2022-08-05T15:56:03.747Z,37.59
2022-08-05T16:01:19.996Z,37.62
2022-08-05T16:06:51.431Z,37.66
2022-08-05T16:12:23.552Z,37.29
2022-08-05T16:17:57.781Z,37.62
2022-08-05T16:23:32.940Z,37.77
2022-08-05T16:29:22.583Z,37.77
2022-08-05T16:34:54.336Z,38.02
2022-08-05T16:40:29.348Z,38.08
2022-08-05T16:46:23.942Z,38.26
2022-08-05T16:51:56.982Z,38.37
2022-08-05T16:57:53.797Z,38.48
2022-08-05T17:03:20.703Z,39.82
2022-08-05T17:08:54.334Z,40.94
2022-08-05T17:14:34.317Z,41.90
2022-08-05T17:20:10.088Z,42.42
2022-08-05T17:25:47.472Z,41.45
2022-08-05T17:31:24.676Z,41.22
2022-08-05T17:37:39.261Z,42.42
2022-08-05T17:43:02.429Z,41.94
2022-08-05T17:48:39.358Z,42.21
2022-08-05T17:54:14.557Z,42.27
2022-08-05T18:00:03.627Z,43.03
2022-08-05T18:05:39.275Z,43.19
2022-08-05T18:11:11.193Z,42.83
2022-08-05T18:16:57.820Z,42.42
2022-08-05T18:22:45.965Z,42.21
2022-08-05T18:28:22.835Z,41.63
2022-08-05T18:33:59.537Z,41.94
2022-08-05T18:40:31.726Z,41.63
2022-08-05T18:45:23.259Z,42.20
2022-08-05T18:52:02.515Z,42.69
2022-08-05T18:57:09.806Z,43.28
2022-08-05T19:02:46.679Z,43.65
2022-08-05T19:08:18.948Z,43.69
2022-08-05T19:13:49.871Z,43.79
2022-08-05T19:19:33.230Z,43.73
2022-08-05T19:25:06.038Z,43.92
2022-08-05T19:30:44.731Z,43.70
2022-08-05T19:36:19.838Z,44.08
2022-08-05T19:42:06.892Z,44.19
2022-08-05T19:47:40.532Z,44.25
2022-08-05T19:53:12.763Z,44.53
2022-08-05T19:58:53.992Z,44.50
2022-08-05T20:04:25.756Z,44.87
2022-08-05T20:09:57.065Z,45.01
2022-08-05T20:15:52.073Z,44.96
2022-08-05T20:21:22.975Z,45.02
2022-08-05T20:26:54.585Z,45.09
2022-08-05T20:32:29.189Z,45.33
2022-08-05T20:38:05.592Z,44.85
2022-08-05T20:43:59.193Z,45.45
2022-08-05T20:49:37.837Z,45.47
2022-08-05T20:55:56.551Z,45.49
2022-08-05T21:01:02.189Z,45.71
2022-08-05T21:06:35.193Z,45.78
2022-08-05T21:12:11.628Z,45.85
2022-08-05T21:17:43.540Z,44.51
2022-08-05T21:23:15.396Z,45.09
2022-08-05T21:28:50.940Z,45.81
2022-08-05T21:34:23.338Z,45.62
2022-08-05T21:39:55.817Z,44.41
2022-08-05T21:45:56.558Z,45.57
2022-08-05T21:51:25.206Z,45.19
2022-08-05T21:57:30.769Z,45.10
2022-08-05T22:03:00.929Z,44.23
2022-08-05T22:08:32.594Z,45.32
2022-08-05T22:14:19.777Z,44.01
2022-08-05T22:20:02.501Z,44.23
2022-08-05T22:26:09.199Z,44.97
2022-08-05T22:31:44.836Z,44.96
2022-08-05T22:37:16.856Z,44.93
2022-08-05T22:42:53.138Z,44.19
2022-08-05T22:48:30.092Z,44.63
2022-08-05T22:54:01.333Z,44.74
2022-08-05T22:59:45.161Z,45.36
2022-08-05T23:05:21.962Z,45.35
2022-08-05T23:10:55.015Z,45.39
2022-08-05T23:16:45.813Z,45.78
2022-08-05T23:22:27.491Z,46.39
2022-08-05T23:28:00.731Z,46.61
2022-08-05T23:34:03.805Z,46.69
2022-08-05T23:39:31.815Z,47.16
2022-08-05T23:45:14.390Z,48.04
2022-08-05T23:50:46.898Z,48.45
2022-08-05T23:56:20.214Z,49.25
